createdAt,value
2018-10-06T00:01:56.425Z,7.90
2018-10-06T00:06:00.808Z,8.70
2018-10-06T00:10:05.325Z,6.90
2018-10-06T00:14:09.725Z,6.47
2018-10-06T00:18:13.947Z,8.40
2018-10-06T00:22:18.281Z,8.47
2018-10-06T00:26:22.612Z,7.50
2018-10-06T00:30:27.254Z,8.40
2018-10-06T00:34:31.487Z,7.93
2018-10-06T00:38:35.828Z,7.90
2018-10-06T00:42:40.061Z,8.47
2018-10-06T00:46:44.370Z,10.10
2018-10-06T00:50:48.709Z,10.17
2018-10-06T00:54:53.106Z,8.93
2018-10-06T00:58:57.333Z,7.80
2018-10-06T01:03:01.806Z,7.83
2018-10-06T01:07:06.158Z,8.97
2018-10-06T01:11:11.582Z,7.77
2018-10-06T01:15:15.832Z,8.17
2018-10-06T01:19:20.152Z,7.47
2018-10-06T01:23:24.349Z,7.97
2018-10-06T01:27:28.721Z,8.17
2018-10-06T01:31:32.941Z,7.70
2018-10-06T01:35:37.296Z,8.23
2018-10-06T01:39:41.502Z,7.47
2018-10-06T01:43:46.873Z,6.10
2018-10-06T01:47:51.149Z,8.93
2018-10-06T01:51:55.486Z,7.50
2018-10-06T01:55:59.758Z,7.43
2018-10-06T02:00:04.078Z,7.57
2018-10-06T02:04:08.574Z,8.70
2018-10-06T02:08:12.901Z,7.70
2018-10-06T02:12:17.374Z,8.00
2018-10-06T02:16:21.657Z,8.67
2018-10-06T02:20:25.989Z,7.10
2018-10-06T02:24:30.220Z,9.30
2018-10-06T02:28:34.621Z,9.50
2018-10-06T02:32:38.854Z,6.27
2018-10-06T02:36:43.313Z,9.23
2018-10-06T02:40:47.514Z,6.77
2018-10-06T02:44:51.813Z,7.30
2018-10-06T02:48:56.084Z,7.63
2018-10-06T02:53:00.354Z,7.27
2018-10-06T02:57:04.616Z,8.17
2018-10-06T03:01:09.747Z,6.67
2018-10-06T03:05:16.252Z,7.90
2018-10-06T03:09:20.462Z,6.60
2018-10-06T03:13:24.807Z,7.70
2018-10-06T03:17:29.066Z,6.60
2018-10-06T03:21:33.456Z,8.50
2018-10-06T03:25:37.691Z,7.77
2018-10-06T03:29:41.988Z,7.57
2018-10-06T03:33:46.258Z,8.50
2018-10-06T03:37:50.765Z,7.20
2018-10-06T03:41:55.008Z,6.03
2018-10-06T03:45:59.386Z,8.30
2018-10-06T03:50:03.664Z,7.10
2018-10-06T03:54:10.848Z,8.20
2018-10-06T03:58:15.028Z,8.30
2018-10-06T04:02:19.373Z,8.10
2018-10-06T04:06:23.638Z,10.07
2018-10-06T04:10:27.993Z,9.33
2018-10-06T04:14:32.259Z,9.07
2018-10-06T04:18:36.811Z,9.70
2018-10-06T04:22:41.064Z,7.53
2018-10-06T04:26:45.533Z,8.40
2018-10-06T04:30:49.878Z,6.53
2018-10-06T04:34:54.336Z,8.90
2018-10-06T04:38:58.611Z,8.03
2018-10-06T04:43:02.942Z,7.93
2018-10-06T04:47:07.228Z,8.78
2018-10-06T04:51:11.541Z,8.33
2018-10-06T04:55:15.895Z,6.23
2018-10-06T04:59:20.520Z,8.20
2018-10-06T05:03:25.125Z,8.20
2018-10-06T05:07:29.336Z,7.07
2018-10-06T05:11:33.627Z,6.33
2018-10-06T05:15:37.871Z,7.87
2018-10-06T05:19:42.201Z,6.13
2018-10-06T05:23:46.496Z,7.43
2018-10-06T05:27:50.697Z,7.00
2018-10-06T05:31:55.054Z,6.97
2018-10-06T05:35:59.285Z,8.43
2018-10-06T05:40:03.604Z,8.90
2018-10-06T05:44:08.039Z,8.20
2018-10-06T05:48:12.344Z,7.27
2018-10-06T05:52:16.851Z,14.18
2018-10-06T05:56:21.655Z,9.57
2018-10-06T06:00:26.218Z,8.70
2018-10-06T06:04:31.028Z,8.93
2018-10-06T06:08:35.710Z,10.60
2018-10-06T06:12:40.332Z,15.20
2018-10-06T06:16:44.926Z,9.90
2018-10-06T06:20:49.188Z,11.17
2018-10-06T06:24:53.401Z,8.87
2018-10-06T06:28:57.818Z,8.53
2018-10-06T06:33:02.048Z,9.20
2018-10-06T06:37:06.468Z,7.73
2018-10-06T06:41:10.686Z,6.97
2018-10-06T06:45:15.098Z,7.50
2018-10-06T06:49:19.344Z,9.77
2018-10-06T06:53:23.839Z,8.73
2018-10-06T06:57:28.113Z,11.70
2018-10-06T07:01:32.346Z,11.50
2018-10-06T07:05:36.730Z,9.47
2018-10-06T07:09:41.090Z,9.17
2018-10-06T07:13:45.339Z,10.63
2018-10-06T07:17:49.669Z,10.43
2018-10-06T07:21:54.004Z,12.00
2018-10-06T07:25:58.320Z,12.03
2018-10-06T07:30:02.576Z,12.13
2018-10-06T07:34:06.848Z,13.17
2018-10-06T07:38:11.106Z,10.93
2018-10-06T07:42:16.467Z,11.40
2018-10-06T07:46:20.895Z,10.57
2018-10-06T07:50:25.198Z,10.53
2018-10-06T07:54:29.485Z,11.27
2018-10-06T07:58:33.809Z,11.07
2018-10-06T08:02:38.054Z,8.97
2018-10-06T08:06:42.360Z,10.07
2018-10-06T08:10:46.651Z,9.67
2018-10-06T08:14:50.977Z,8.70
2018-10-06T08:18:55.229Z,10.53
2018-10-06T08:22:59.632Z,10.73
2018-10-06T08:27:03.933Z,8.93
2018-10-06T08:31:09.694Z,10.10
2018-10-06T08:35:13.980Z,8.27
2018-10-06T08:39:18.256Z,8.47
2018-10-06T08:43:22.584Z,7.20
2018-10-06T08:47:26.810Z,8.43
2018-10-06T08:51:31.369Z,7.93
2018-10-06T08:55:35.569Z,8.27
2018-10-06T08:59:40.021Z,8.00
2018-10-06T09:03:44.334Z,7.27
2018-10-06T09:07:48.667Z,7.43
2018-10-06T09:11:53.096Z,7.40
2018-10-06T09:15:57.380Z,6.60
2018-10-06T09:20:01.749Z,7.00
2018-10-06T09:24:06.148Z,6.90
2018-10-06T09:28:10.549Z,7.50
2018-10-06T09:32:14.776Z,5.90
2018-10-06T09:36:19.142Z,6.60
2018-10-06T09:40:23.333Z,7.10
2018-10-06T09:44:27.732Z,6.60
2018-10-06T09:48:32.075Z,6.10
2018-10-06T09:52:36.457Z,6.10
2018-10-06T09:56:40.678Z,5.93
2018-10-06T10:00:50.387Z,5.77
2018-10-06T10:04:58.740Z,6.63
2018-10-06T10:09:03.076Z,5.13
2018-10-06T10:13:07.806Z,6.17
2018-10-06T10:17:12.515Z,5.60
2018-10-06T10:21:16.896Z,6.63
2018-10-06T10:25:21.118Z,5.30
2018-10-06T10:29:27.315Z,5.77
2018-10-06T10:33:31.564Z,5.30
2018-10-06T10:37:36.086Z,5.73
2018-10-06T10:41:40.275Z,5.43
2018-10-06T10:45:44.819Z,6.00
2018-10-06T10:49:49.089Z,6.07
2018-10-06T10:53:53.447Z,6.10
2018-10-06T10:57:58.825Z,5.40
2018-10-06T11:02:03.048Z,5.63
2018-10-06T11:06:07.507Z,4.93
2018-10-06T11:10:11.718Z,6.10
2018-10-06T11:14:16.280Z,5.40
2018-10-06T11:18:20.538Z,5.40
2018-10-06T11:22:24.784Z,6.03
2018-10-06T11:26:29.693Z,6.73
2018-10-06T11:30:34.194Z,5.80
2018-10-06T11:34:38.757Z,5.43
2018-10-06T11:38:43.344Z,5.27
2018-10-06T11:42:47.833Z,6.27
2018-10-06T11:46:52.222Z,5.30
2018-10-06T11:50:56.464Z,5.33
2018-10-06T11:55:00.840Z,5.07
2018-10-06T11:59:05.109Z,4.20
2018-10-06T12:03:09.387Z,6.17
2018-10-06T12:07:13.842Z,5.70
2018-10-06T12:11:18.316Z,5.10
2018-10-06T12:15:23.798Z,6.17
2018-10-06T12:19:28.019Z,4.90
2018-10-06T12:23:32.267Z,6.40
2018-10-06T12:27:37.075Z,5.50
2018-10-06T12:31:41.599Z,5.10
2018-10-06T12:35:46.474Z,5.00
2018-10-06T12:39:50.894Z,5.77
2018-10-06T12:43:55.251Z,4.80
2018-10-06T12:47:59.875Z,5.17
2018-10-06T12:52:05.618Z,4.43
2018-10-06T12:56:10.313Z,5.40
2018-10-06T13:00:14.974Z,5.53
2018-10-06T13:04:19.527Z,4.60
2018-10-06T13:08:23.768Z,3.73
2018-10-06T13:12:28.254Z,6.67
2018-10-06T13:16:32.664Z,4.63
2018-10-06T13:20:37.106Z,4.73
2018-10-06T13:24:41.413Z,4.80
2018-10-06T13:28:45.731Z,5.00
2018-10-06T13:32:50.011Z,4.40
2018-10-06T13:36:54.384Z,4.37
2018-10-06T13:40:58.627Z,4.67
2018-10-06T13:45:05.492Z,4.97
2018-10-06T13:49:13.933Z,4.30
2018-10-06T13:53:20.477Z,3.70
2018-10-06T13:57:26.379Z,4.17
2018-10-06T14:01:33.525Z,4.40
2018-10-06T14:05:42.221Z,4.00
2018-10-06T14:14:14.767Z,3.67
2018-10-06T14:18:21.464Z,4.40
2018-10-06T14:22:27.470Z,5.00
2018-10-06T14:26:34.066Z,4.17
2018-10-06T14:30:39.708Z,4.77
2018-10-06T14:34:44.210Z,5.37
2018-10-06T14:38:48.432Z,5.00
2018-10-06T14:42:52.862Z,4.80
2018-10-06T14:46:57.157Z,4.43
2018-10-06T14:51:01.553Z,4.50
2018-10-06T14:55:06.063Z,4.23
2018-10-06T14:59:10.302Z,5.00
2018-10-06T15:03:14.641Z,3.30
2018-10-06T15:07:18.857Z,4.73
2018-10-06T15:11:23.184Z,5.03
2018-10-06T15:15:27.472Z,5.20
2018-10-06T15:19:31.850Z,5.40
2018-10-06T15:23:36.651Z,4.40
2018-10-06T15:27:40.962Z,3.67
2018-10-06T15:31:45.196Z,4.17
2018-10-06T15:35:49.598Z,4.50
2018-10-06T15:39:54.022Z,4.00
2018-10-06T15:43:58.364Z,4.27
2018-10-06T15:48:02.581Z,4.00
2018-10-06T15:52:08.188Z,5.20
2018-10-06T15:56:12.517Z,4.20
2018-10-06T16:00:17.096Z,5.97
2018-10-06T16:04:21.432Z,6.40
2018-10-06T16:08:25.905Z,6.83
2018-10-06T16:12:30.393Z,7.07
2018-10-06T16:16:35.167Z,6.30
2018-10-06T16:20:39.440Z,7.80
2018-10-06T16:24:43.829Z,6.43
2018-10-06T16:28:48.202Z,5.90
2018-10-06T16:32:52.665Z,7.57
2018-10-06T16:36:56.908Z,6.10
2018-10-06T16:41:01.385Z,6.67
2018-10-06T16:45:06.203Z,5.70
2018-10-06T16:49:10.851Z,6.57
2018-10-06T16:53:15.097Z,6.67
2018-10-06T16:57:19.425Z,7.07
2018-10-06T17:01:23.812Z,7.30
2018-10-06T17:05:28.353Z,6.30
2018-10-06T17:09:32.729Z,8.00
2018-10-06T17:13:37.175Z,7.40
2018-10-06T17:17:41.660Z,7.40
2018-10-06T17:21:46.005Z,7.00
2018-10-06T17:25:51.650Z,8.10
2018-10-06T17:29:56.256Z,7.13
2018-10-06T17:34:01.057Z,7.10
2018-10-06T17:38:05.466Z,6.00
2018-10-06T17:42:10.090Z,7.13
2018-10-06T17:46:14.698Z,7.80
2018-10-06T17:50:19.263Z,8.17
2018-10-06T17:54:24.205Z,6.60
2018-10-06T17:58:28.541Z,7.20
